Puerto Banus, Marbella

>

This is an optional block (switch it off / on) in the settings - file ($SITE['banners'] = false;)

You can display ads, any other important text or photo’s using text / html or PHP code.

You can place one or more at the top and or bottom and it can all be different for content / size .



Meteosat more information blitzortung!


Radar lluvias  rain snow radar


Visita nuestra red de sitios de meteo:

Documentation for the template used

MeteoibericaRed estaciones Meteorologicas

MeteoclimaticRed estaciones Meteorologicas



Viento Desde: 19-04-2018 23:00 Hasta: 21-04-2018 04:59 Advertencias para: Viento Nivel: Amarillo info button

Pagina Historial Weather Underground texto

Diario Resumen Diciembre 4, 2017 Unidades:  Tanto    impérial   Métrico
« Anterior Dia
Siguiente Dia »
Diario Semana Mensual Anual Personalizada
  Maxima: Minima: Media:
Temperatura: TemperatureC °F /  -17.8 °C 7.8 °F /  -13.4 °C 11.6 °F /  -11.3 °C
Punto de rocío: DewpointC °F /  -17.8 °C 1.0 °F /  -17.2 °C 6 °F /  -14.4 °C
Humedad: Humidity % 60 % 68 %
Velocidad del Viento: WindSpeedKMH mph /  0 km/h - 20.2 mph /  32.5 km/h
Ráfagas de viento: WindSpeedGustKMH mph /  0 km/h - -
Viento:- - ESE
Pression baro: PressurehPa in /  0 hPa 1029.0 in /  34841.9 hPa -
Précipitaciones: 0.0 in /  0 mm    
Historical Graphs
 
 
Datos de tabla para Diciembre 4, 2017
Tiempo Temperatura Punto de rocío Pression baro Viento Velocidad del Viento Ráfagas de viento Humedad Las precipitaciones Rate ( Hora )
TemperatureC °F /  -17.8 °C DewpointC °F /  -17.8 °C PressurehPa in /  0 hPa Calm     Humidity % HourlyPrecipMM in /  0 mm
00:02 9.5 °F /  -12.5 °C 4.9 °F /  -15.1 °C 1029.0 in /  34841.9 hPa NNW 18.5 mph /  29.8 km/h 18.5 mph /  29.8 km/h 73 % 0.0 in /  0 mm
00:07 9.5 °F /  -12.5 °C 4.9 °F /  -15.1 °C 1029.3 in /  34852.1 hPa North 18.5 mph /  29.8 km/h 18.5 mph /  29.8 km/h 73 % 0.0 in /  0 mm
00:12 9.5 °F /  -12.5 °C 4.9 °F /  -15.1 °C 1029.3 in /  34852.1 hPa NNE 18.5 mph /  29.8 km/h 18.5 mph /  29.8 km/h 73 % 0.0 in /  0 mm
00:17 9.5 °F /  -12.5 °C 4.9 °F /  -15.1 °C 1029.3 in /  34852.1 hPa North 20.4 mph /  32.8 km/h 20.4 mph /  32.8 km/h 73 % 0.0 in /  0 mm
00:22 9.6 °F /  -12.4 °C 4.9 °F /  -15.1 °C 1029.3 in /  34852.1 hPa North 18.5 mph /  29.8 km/h 18.5 mph /  29.8 km/h 73 % 0.0 in /  0 mm
00:27 9.6 °F /  -12.4 °C 4.9 °F /  -15.1 °C 1029.3 in /  34852.1 hPa NNW 18.5 mph /  29.8 km/h 18.5 mph /  29.8 km/h 73 % 0.0 in /  0 mm
00:32 9.6 °F /  -12.4 °C 4.9 °F /  -15.1 °C 1029.3 in /  34852.1 hPa NNE 18.5 mph /  29.8 km/h 18.5 mph /  29.8 km/h 73 % 0.0 in /  0 mm
00:37 9.6 °F /  -12.4 °C 4.9 °F /  -15.1 °C 1029.3 in /  34852.1 hPa NNE 20.4 mph /  32.8 km/h 20.4 mph /  32.8 km/h 73 % 0.0 in /  0 mm
00:47 9.5 °F /  -12.5 °C 4.9 °F /  -15.1 °C 1029.3 in /  34852.1 hPa North 18.5 mph /  29.8 km/h 18.5 mph /  29.8 km/h 73 % 0.0 in /  0 mm
00:48 9.5 °F /  -12.5 °C 4.9 °F /  -15.1 °C 1029.3 in /  34852.1 hPa North 18.5 mph /  29.8 km/h 18.5 mph /  29.8 km/h 73 % 0.0 in /  0 mm
00:53 9.5 °F /  -12.5 °C 4.9 °F /  -15.1 °C 1029.3 in /  34852.1 hPa North 14.8 mph /  23.8 km/h 14.8 mph /  23.8 km/h 73 % 0.0 in /  0 mm
00:58 9.5 °F /  -12.5 °C 4.9 °F /  -15.1 °C 1029.3 in /  34852.1 hPa NNE 16.7 mph /  26.9 km/h 16.7 mph /  26.9 km/h 73 % 0.0 in /  0 mm
01:03 9.6 °F /  -12.4 °C 4.9 °F /  -15.1 °C 1029.3 in /  34852.1 hPa North 16.7 mph /  26.9 km/h 16.7 mph /  26.9 km/h 73 % 0.0 in /  0 mm
01:08 9.6 °F /  -12.4 °C 4.9 °F /  -15.1 °C 1029.3 in /  34852.1 hPa NNE 14.8 mph /  23.8 km/h 14.8 mph /  23.8 km/h 73 % 0.0 in /  0 mm
01:13 9.6 °F /  -12.4 °C 4.9 °F /  -15.1 °C 1029.3 in /  34852.1 hPa North 16.7 mph /  26.9 km/h 16.7 mph /  26.9 km/h 73 % 0.0 in /  0 mm
01:14 9.6 °F /  -12.4 °C 4.9 °F /  -15.1 °C 1029.3 in /  34852.1 hPa North 14.8 mph /  23.8 km/h 14.8 mph /  23.8 km/h 73 % 0.0 in /  0 mm
01:24 9.5 °F /  -12.5 °C 4.9 °F /  -15.1 °C 1029.3 in /  34852.1 hPa North 16.7 mph /  26.9 km/h 16.7 mph /  26.9 km/h 73 % 0.0 in /  0 mm
01:29 9.4 °F /  -12.6 °C 4.8 °F /  -15.1 °C 1029.3 in /  34852.1 hPa North 16.7 mph /  26.9 km/h 16.7 mph /  26.9 km/h 73 % 0.0 in /  0 mm
01:34 9.4 °F /  -12.6 °C 4.8 °F /  -15.1 °C 1029.3 in /  34852.1 hPa North 16.1 mph /  25.9 km/h 16.1 mph /  25.9 km/h 73 % 0.0 in /  0 mm
01:39 9.5 °F /  -12.5 °C 4.9 °F /  -15.1 °C 1029.3 in /  34852.1 hPa North 16.7 mph /  26.9 km/h 16.7 mph /  26.9 km/h 73 % 0.0 in /  0 mm
01:44 9.5 °F /  -12.5 °C 4.9 °F /  -15.1 °C 1029.0 in /  34841.9 hPa North 18.5 mph /  29.8 km/h 18.5 mph /  29.8 km/h 73 % 0.0 in /  0 mm
01:49 9.5 °F /  -12.5 °C 4.9 °F /  -15.1 °C 1029.0 in /  34841.9 hPa NNE 14.8 mph /  23.8 km/h 14.8 mph /  23.8 km/h 73 % 0.0 in /  0 mm
01:54 9.5 °F /  -12.5 °C 4.7 °F /  -15.2 °C 1029.0 in /  34841.9 hPa NNE 14.8 mph /  23.8 km/h 14.8 mph /  23.8 km/h 72 % 0.0 in /  0 mm
01:59 9.6 °F /  -12.4 °C 4.8 °F /  -15.1 °C 1029.0 in /  34841.9 hPa NNE 18.5 mph /  29.8 km/h 18.5 mph /  29.8 km/h 72 % 0.0 in /  0 mm
02:04 9.5 °F /  -12.5 °C 4.7 °F /  -15.2 °C 1029.0 in /  34841.9 hPa North 14.8 mph /  23.8 km/h 14.8 mph /  23.8 km/h 72 % 0.0 in /  0 mm
02:09 9.5 °F /  -12.5 °C 4.7 °F /  -15.2 °C 1029.3 in /  34852.1 hPa North 14.8 mph /  23.8 km/h 14.8 mph /  23.8 km/h 72 % 0.0 in /  0 mm
02:14 9.5 °F /  -12.5 °C 4.7 °F /  -15.2 °C 1029.0 in /  34841.9 hPa North 13.0 mph /  20.9 km/h 13.0 mph /  20.9 km/h 72 % 0.0 in /  0 mm
02:19 9.4 °F /  -12.6 °C 4.7 °F /  -15.2 °C 1029.3 in /  34852.1 hPa North 18.5 mph /  29.8 km/h 18.5 mph /  29.8 km/h 72 % 0.0 in /  0 mm
02:24 9.4 °F /  -12.6 °C 4.7 °F /  -15.2 °C 1029.0 in /  34841.9 hPa North 17.7 mph /  28.5 km/h 17.7 mph /  28.5 km/h 72 % 0.0 in /  0 mm
02:29 9.4 °F /  -12.6 °C 4.7 °F /  -15.2 °C 1029.0 in /  34841.9 hPa North 14.8 mph /  23.8 km/h 14.8 mph /  23.8 km/h 72 % 0.0 in /  0 mm
02:35 9.4 °F /  -12.6 °C 4.6 °F /  -15.2 °C 1029.0 in /  34841.9 hPa NNE 16.1 mph /  25.9 km/h 16.1 mph /  25.9 km/h 72 % 0.0 in /  0 mm
02:40 9.4 °F /  -12.6 °C 4.6 °F /  -15.2 °C 1029.0 in /  34841.9 hPa North 14.8 mph /  23.8 km/h 14.8 mph /  23.8 km/h 72 % 0.0 in /  0 mm
02:45 9.3 °F /  -12.6 °C 4.7 °F /  -15.2 °C 1029.0 in /  34841.9 hPa North 13.0 mph /  20.9 km/h 13.0 mph /  20.9 km/h 73 % 0.0 in /  0 mm
02:50 9.3 °F /  -12.6 °C 4.7 °F /  -15.2 °C 1029.0 in /  34841.9 hPa NNE 13.0 mph /  20.9 km/h 13.0 mph /  20.9 km/h 73 % 0.0 in /  0 mm
02:55 9.3 °F /  -12.6 °C 4.5 °F /  -15.3 °C 1029.0 in /  34841.9 hPa North 16.1 mph /  25.9 km/h 16.1 mph /  25.9 km/h 72 % 0.0 in /  0 mm
03:00 9.3 °F /  -12.6 °C 4.5 °F /  -15.3 °C 1029.0 in /  34841.9 hPa North 11.1 mph /  17.9 km/h 11.1 mph /  17.9 km/h 72 % 0.0 in /  0 mm
03:05 9.3 °F /  -12.6 °C 4.5 °F /  -15.3 °C 1029.3 in /  34852.1 hPa North 14.8 mph /  23.8 km/h 14.8 mph /  23.8 km/h 72 % 0.0 in /  0 mm
03:10 9.3 °F /  -12.6 °C 4.6 °F /  -15.2 °C 1029.3 in /  34852.1 hPa North 11.1 mph /  17.9 km/h 11.1 mph /  17.9 km/h 72 % 0.0 in /  0 mm
03:15 9.3 °F /  -12.6 °C 4.6 °F /  -15.2 °C 1029.0 in /  34841.9 hPa North 14.8 mph /  23.8 km/h 14.8 mph /  23.8 km/h 72 % 0.0 in /  0 mm
03:20 9.3 °F /  -12.6 °C 4.6 °F /  -15.2 °C 1029.3 in /  34852.1 hPa North 14.8 mph /  23.8 km/h 14.8 mph /  23.8 km/h 72 % 0.0 in /  0 mm
03:25 9.4 °F /  -12.6 °C 4.6 °F /  -15.2 °C 1029.3 in /  34852.1 hPa North 16.7 mph /  26.9 km/h 16.7 mph /  26.9 km/h 72 % 0.0 in /  0 mm
03:27 9.4 °F /  -12.6 °C 4.4 °F /  -15.3 °C 1029.3 in /  34852.1 hPa North 16.7 mph /  26.9 km/h 16.7 mph /  26.9 km/h 71 % 0.0 in /  0 mm
03:32 9.3 °F /  -12.6 °C 4.3 °F /  -15.4 °C 1029.3 in /  34852.1 hPa North 14.8 mph /  23.8 km/h 14.8 mph /  23.8 km/h 71 % 0.0 in /  0 mm
03:37 9.2 °F /  -12.7 °C 4.4 °F /  -15.3 °C 1029.3 in /  34852.1 hPa North 14.8 mph /  23.8 km/h 14.8 mph /  23.8 km/h 72 % 0.0 in /  0 mm
03:42 9.1 °F /  -12.7 °C 4.3 °F /  -15.4 °C 1029.3 in /  34852.1 hPa North 13.0 mph /  20.9 km/h 13.0 mph /  20.9 km/h 72 % 0.0 in /  0 mm
03:47 9.1 °F /  -12.7 °C 4.3 °F /  -15.4 °C 1029.3 in /  34852.1 hPa North 14.8 mph /  23.8 km/h 14.8 mph /  23.8 km/h 72 % 0.0 in /  0 mm
03:52 9.1 °F /  -12.7 °C 4.1 °F /  -15.5 °C 1029.3 in /  34852.1 hPa NNW 11.1 mph /  17.9 km/h 11.1 mph /  17.9 km/h 71 % 0.0 in /  0 mm
04:02 8.9 °F /  -12.8 °C 4.1 °F /  -15.5 °C 1029.3 in /  34852.1 hPa North 14.8 mph /  23.8 km/h 14.8 mph /  23.8 km/h 72 % 0.0 in /  0 mm
04:07 8.8 °F /  -12.9 °C 4.1 °F /  -15.5 °C 1029.3 in /  34852.1 hPa NNW 16.7 mph /  26.9 km/h 16.7 mph /  26.9 km/h 72 % 0.0 in /  0 mm
04:12 8.8 °F /  -12.9 °C 4.1 °F /  -15.5 °C 1029.3 in /  34852.1 hPa North 13.0 mph /  20.9 km/h 13.0 mph /  20.9 km/h 72 % 0.0 in /  0 mm
04:18 8.8 °F /  -12.9 °C 4.0 °F /  -15.6 °C 1029.3 in /  34852.1 hPa North 16.7 mph /  26.9 km/h 16.7 mph /  26.9 km/h 72 % 0.0 in /  0 mm
04:21 8.8 °F /  -12.9 °C 4.0 °F /  -15.6 °C 1029.3 in /  34852.1 hPa North 16.1 mph /  25.9 km/h 16.1 mph /  25.9 km/h 72 % 0.0 in /  0 mm
04:22 8.8 °F /  -12.9 °C 4.0 °F /  -15.6 °C 1029.3 in /  34852.1 hPa North 18.5 mph /  29.8 km/h 18.5 mph /  29.8 km/h 72 % 0.0 in /  0 mm
04:26 8.8 °F /  -12.9 °C 3.8 °F /  -15.7 °C 1029.0 in /  34841.9 hPa North 20.4 mph /  32.8 km/h 20.4 mph /  32.8 km/h 71 % 0.0 in /  0 mm
04:28 8.8 °F /  -12.9 °C 3.8 °F /  -15.7 °C 1029.0 in /  34841.9 hPa North 16.7 mph /  26.9 km/h 16.7 mph /  26.9 km/h 71 % 0.0 in /  0 mm
04:29 8.8 °F /  -12.9 °C 3.8 °F /  -15.7 °C 1029.3 in /  34852.1 hPa NNE 16.7 mph /  26.9 km/h 16.7 mph /  26.9 km/h 71 % 0.0 in /  0 mm
04:31 8.8 °F /  -12.9 °C 3.8 °F /  -15.7 °C 1029.3 in /  34852.1 hPa North 16.7 mph /  26.9 km/h 16.7 mph /  26.9 km/h 71 % 0.0 in /  0 mm
04:36 8.7 °F /  -12.9 °C 3.8 °F /  -15.7 °C 1029.3 in /  34852.1 hPa North 16.7 mph /  26.9 km/h 16.7 mph /  26.9 km/h 71 % 0.0 in /  0 mm
04:38 8.7 °F /  -12.9 °C 3.7 °F /  -15.7 °C 1029.3 in /  34852.1 hPa North 14.8 mph /  23.8 km/h 14.8 mph /  23.8 km/h 71 % 0.0 in /  0 mm
04:41 8.6 °F /  -13 °C 3.7 °F /  -15.7 °C 1029.0 in /  34841.9 hPa North 17.7 mph /  28.5 km/h 17.7 mph /  28.5 km/h 71 % 0.0 in /  0 mm
04:46 8.6 °F /  -13 °C 3.7 °F /  -15.7 °C 1029.3 in /  34852.1 hPa North 18.5 mph /  29.8 km/h 18.5 mph /  29.8 km/h 71 % 0.0 in /  0 mm
04:51 8.6 °F /  -13 °C 3.6 °F /  -15.8 °C 1029.0 in /  34841.9 hPa North 13.0 mph /  20.9 km/h 13.0 mph /  20.9 km/h 71 % 0.0 in /  0 mm
04:56 8.5 °F /  -13.1 °C 3.6 °F /  -15.8 °C 1029.0 in /  34841.9 hPa North 14.8 mph /  23.8 km/h 14.8 mph /  23.8 km/h 71 % 0.0 in /  0 mm
05:01 8.4 °F /  -13.1 °C 3.5 °F /  -15.8 °C 1029.0 in /  34841.9 hPa North 18.5 mph /  29.8 km/h 18.5 mph /  29.8 km/h 71 % 0.0 in /  0 mm
05:06 8.4 °F /  -13.1 °C 3.3 °F /  -15.9 °C 1029.0 in /  34841.9 hPa North 16.7 mph /  26.9 km/h 16.7 mph /  26.9 km/h 70 % 0.0 in /  0 mm
05:11 8.5 °F /  -13.1 °C 3.3 °F /  -15.9 °C 1029.0 in /  34841.9 hPa North 18.5 mph /  29.8 km/h 18.5 mph /  29.8 km/h 70 % 0.0 in /  0 mm
05:21 8.4 °F /  -13.1 °C 3.0 °F /  -16.1 °C 1029.0 in /  34841.9 hPa North 18.5 mph /  29.8 km/h 18.5 mph /  29.8 km/h 69 % 0.0 in /  0 mm
05:26 8.4 °F /  -13.1 °C 2.8 °F /  -16.2 °C 1029.0 in /  34841.9 hPa North 18.5 mph /  29.8 km/h 18.5 mph /  29.8 km/h 68 % 0.0 in /  0 mm
05:31 8.3 °F /  -13.2 °C 2.8 °F /  -16.2 °C 1029.0 in /  34841.9 hPa North 18.5 mph /  29.8 km/h 18.5 mph /  29.8 km/h 68 % 0.0 in /  0 mm
05:36 8.3 °F /  -13.2 °C 2.7 °F /  -16.3 °C 1029.0 in /  34841.9 hPa North 14.8 mph /  23.8 km/h 14.8 mph /  23.8 km/h 68 % 0.0 in /  0 mm
05:41 8.2 °F /  -13.2 °C 2.7 °F /  -16.3 °C 1029.0 in /  34841.9 hPa NNE 16.7 mph /  26.9 km/h 16.7 mph /  26.9 km/h 68 % 0.0 in /  0 mm
05:46 8.2 °F /  -13.2 °C 2.6 °F /  -16.3 °C 1029.0 in /  34841.9 hPa NNW 16.7 mph /  26.9 km/h 16.7 mph /  26.9 km/h 68 % 0.0 in /  0 mm
05:51 8.1 °F /  -13.3 °C 2.6 °F /  -16.3 °C 1029.0 in /  34841.9 hPa NNW 14.8 mph /  23.8 km/h 14.8 mph /  23.8 km/h 68 % 0.0 in /  0 mm
05:52 8.1 °F /  -13.3 °C 2.6 °F /  -16.3 °C 1029.0 in /  34841.9 hPa North 16.7 mph /  26.9 km/h 16.7 mph /  26.9 km/h 68 % 0.0 in /  0 mm
05:57 8.1 °F /  -13.3 °C 2.6 °F /  -16.3 °C 1029.0 in /  34841.9 hPa North 14.8 mph /  23.8 km/h 14.8 mph /  23.8 km/h 68 % 0.0 in /  0 mm
06:02 8.1 °F /  -13.3 °C 2.5 °F /  -16.4 °C 1029.0 in /  34841.9 hPa NNW 18.5 mph /  29.8 km/h 18.5 mph /  29.8 km/h 68 % 0.0 in /  0 mm
06:03 8.1 °F /  -13.3 °C 2.5 °F /  -16.4 °C 1029.0 in /  34841.9 hPa North 18.5 mph /  29.8 km/h 18.5 mph /  29.8 km/h 68 % 0.0 in /  0 mm
06:08 8.0 °F /  -13.3 °C 2.4 °F /  -16.4 °C 1029.0 in /  34841.9 hPa NNE 18.5 mph /  29.8 km/h 18.5 mph /  29.8 km/h 68 % 0.0 in /  0 mm
06:13 8.0 °F /  -13.3 °C 2.4 °F /  -16.4 °C 1029.0 in /  34841.9 hPa NNW 14.8 mph /  23.8 km/h 14.8 mph /  23.8 km/h 68 % 0.0 in /  0 mm
06:18 8.1 °F /  -13.3 °C 2.3 °F /  -16.5 °C 1029.0 in /  34841.9 hPa North 18.5 mph /  29.8 km/h 18.5 mph /  29.8 km/h 67 % 0.0 in /  0 mm
06:23 8.0 °F /  -13.3 °C 2.2 °F /  -16.6 °C 1029.0 in /  34841.9 hPa NNE 18.5 mph /  29.8 km/h 18.5 mph /  29.8 km/h 67 % 0.0 in /  0 mm
06:28 8.0 °F /  -13.3 °C 2.2 °F /  -16.6 °C 1029.3 in /  34852.1 hPa North 16.7 mph /  26.9 km/h 16.7 mph /  26.9 km/h 67 % 0.0 in /  0 mm
06:33 8.1 °F /  -13.3 °C 2.3 °F /  -16.5 °C 1029.3 in /  34852.1 hPa North 18.5 mph /  29.8 km/h 18.5 mph /  29.8 km/h 67 % 0.0 in /  0 mm
06:38 8.0 °F /  -13.3 °C 2.1 °F /  -16.6 °C 1029.3 in /  34852.1 hPa North 18.5 mph /  29.8 km/h 18.5 mph /  29.8 km/h 66 % 0.0 in /  0 mm
06:43 7.9 °F /  -13.4 °C 2.0 °F /  -16.7 °C 1029.3 in /  34852.1 hPa NNE 14.8 mph /  23.8 km/h 14.8 mph /  23.8 km/h 66 % 0.0 in /  0 mm
06:48 8.0 °F /  -13.3 °C 2.1 °F /  -16.6 °C 1029.3 in /  34852.1 hPa North 18.5 mph /  29.8 km/h 18.5 mph /  29.8 km/h 66 % 0.0 in /  0 mm
06:53 8.0 °F /  -13.3 °C 1.8 °F /  -16.8 °C 1029.3 in /  34852.1 hPa NNE 18.5 mph /  29.8 km/h 18.5 mph /  29.8 km/h 65 % 0.0 in /  0 mm
06:58 8.0 °F /  -13.3 °C 1.8 °F /  -16.8 °C 1029.3 in /  34852.1 hPa North 16.7 mph /  26.9 km/h 16.7 mph /  26.9 km/h 65 % 0.0 in /  0 mm
07:03 8.0 °F /  -13.3 °C 1.6 °F /  -16.9 °C 1029.3 in /  34852.1 hPa North 18.5 mph /  29.8 km/h 18.5 mph /  29.8 km/h 64 % 0.0 in /  0 mm
07:08 8.1 °F /  -13.3 °C 1.7 °F /  -16.8 °C 1029.3 in /  34852.1 hPa NNE 18.5 mph /  29.8 km/h 18.5 mph /  29.8 km/h 64 % 0.0 in /  0 mm
07:13 8.1 °F /  -13.3 °C 1.7 °F /  -16.8 °C 1029.3 in /  34852.1 hPa North 18.5 mph /  29.8 km/h 18.5 mph /  29.8 km/h 64 % 0.0 in /  0 mm
07:18 8.1 °F /  -13.3 °C 1.4 °F /  -17 °C 1029.7 in /  34865.6 hPa North 18.5 mph /  29.8 km/h 18.5 mph /  29.8 km/h 63 % 0.0 in /  0 mm
07:23 8.0 °F /  -13.3 °C 1.4 °F /  -17 °C 1029.7 in /  34865.6 hPa North 18.5 mph /  29.8 km/h 18.5 mph /  29.8 km/h 63 % 0.0 in /  0 mm
07:28 8.0 °F /  -13.3 °C 1.4 °F /  -17 °C 1029.7 in /  34865.6 hPa North 16.7 mph /  26.9 km/h 16.7 mph /  26.9 km/h 63 % 0.0 in /  0 mm
07:33 8.1 °F /  -13.3 °C 1.2 °F /  -17.1 °C 1029.7 in /  34865.6 hPa North 20.4 mph /  32.8 km/h 20.4 mph /  32.8 km/h 62 % 0.0 in /  0 mm
07:38 8.1 °F /  -13.3 °C 1.3 °F /  -17.1 °C 1029.7 in /  34865.6 hPa North 20.4 mph /  32.8 km/h 20.4 mph /  32.8 km/h 62 % 0.0 in /  0 mm
07:43 8.1 °F /  -13.3 °C 1.1 °F /  -17.2 °C 1029.7 in /  34865.6 hPa North 18.5 mph /  29.8 km/h 18.5 mph /  29.8 km/h 61 % 0.0 in /  0 mm
07:48 8.1 °F /  -13.3 °C 1.3 °F /  -17.1 °C 1029.7 in /  34865.6 hPa North 18.5 mph /  29.8 km/h 18.5 mph /  29.8 km/h 62 % 0.0 in /  0 mm
07:53 8.1 °F /  -13.3 °C 1.2 °F /  -17.1 °C 1030.0 in /  34875.8 hPa North 18.5 mph /  29.8 km/h 18.5 mph /  29.8 km/h 62 % 0.0 in /  0 mm
07:58 8.1 °F /  -13.3 °C 1.2 °F /  -17.1 °C 1030.0 in /  34875.8 hPa North 18.5 mph /  29.8 km/h 18.5 mph /  29.8 km/h 62 % 0.0 in /  0 mm
08:03 8.0 °F /  -13.3 °C 1.4 °F /  -17 °C 1030.0 in /  34875.8 hPa North 16.7 mph /  26.9 km/h 16.7 mph /  26.9 km/h 63 % 0.0 in /  0 mm
08:08 7.9 °F /  -13.4 °C 1.3 °F /  -17.1 °C 1030.0 in /  34875.8 hPa NNW 18.5 mph /  29.8 km/h 18.5 mph /  29.8 km/h 63 % 0.0 in /  0 mm
08:13 7.8 °F /  -13.4 °C 1.2 °F /  -17.1 °C 1030.0 in /  34875.8 hPa North 16.7 mph /  26.9 km/h 16.7 mph /  26.9 km/h 63 % 0.0 in /  0 mm
08:18 7.8 °F /  -13.4 °C 1.2 °F /  -17.1 °C 1030.4 in /  34889.3 hPa North 18.5 mph /  29.8 km/h 18.5 mph /  29.8 km/h 63 % 0.0 in /  0 mm
08:23 7.8 °F /  -13.4 °C 1.2 °F /  -17.1 °C 1030.4 in /  34889.3 hPa NNE 18.5 mph /  29.8 km/h 18.5 mph /  29.8 km/h 63 % 0.0 in /  0 mm
08:28 7.8 °F /  -13.4 °C 1.2 °F /  -17.1 °C 1030.4 in /  34889.3 hPa North 18.5 mph /  29.8 km/h 18.5 mph /  29.8 km/h 63 % 0.0 in /  0 mm
08:33 7.8 °F /  -13.4 °C 1.0 °F /  -17.2 °C 1030.4 in /  34889.3 hPa North 18.5 mph /  29.8 km/h 18.5 mph /  29.8 km/h 62 % 0.0 in /  0 mm
08:38 7.8 °F /  -13.4 °C 1.2 °F /  -17.1 °C 1030.4 in /  34889.3 hPa North 18.5 mph /  29.8 km/h 18.5 mph /  29.8 km/h 63 % 0.0 in /  0 mm
08:43 7.8 °F /  -13.4 °C 1.2 °F /  -17.1 °C 1030.4 in /  34889.3 hPa North 18.5 mph /  29.8 km/h 18.5 mph /  29.8 km/h 63 % 0.0 in /  0 mm
08:48 7.9 °F /  -13.4 °C 1.3 °F /  -17.1 °C 1030.7 in /  34899.5 hPa North 16.7 mph /  26.9 km/h 16.7 mph /  26.9 km/h 63 % 0.0 in /  0 mm
08:53 7.9 °F /  -13.4 °C 1.3 °F /  -17.1 °C 1030.7 in /  34899.5 hPa North 18.5 mph /  29.8 km/h 18.5 mph /  29.8 km/h 63 % 0.0 in /  0 mm
08:58 8.1 °F /  -13.3 °C 1.4 °F /  -17 °C 1030.7 in /  34899.5 hPa North 16.7 mph /  26.9 km/h 16.7 mph /  26.9 km/h 63 % 0.0 in /  0 mm
09:03 8.2 °F /  -13.2 °C 1.6 °F /  -16.9 °C 1030.7 in /  34899.5 hPa North 18.5 mph /  29.8 km/h 18.5 mph /  29.8 km/h 63 % 0.0 in /  0 mm
09:08 8.5 °F /  -13.1 °C 1.4 °F /  -17 °C 1030.7 in /  34899.5 hPa North 18.5 mph /  29.8 km/h 18.5 mph /  29.8 km/h 61 % 0.0 in /  0 mm
09:13 8.7 °F /  -12.9 °C 1.4 °F /  -17 °C 1030.7 in /  34899.5 hPa NNE 18.5 mph /  29.8 km/h 18.5 mph /  29.8 km/h 60 % 0.0 in /  0 mm
09:18 9.0 °F /  -12.8 °C 1.9 °F /  -16.7 °C 1030.7 in /  34899.5 hPa North 14.8 mph /  23.8 km/h 14.8 mph /  23.8 km/h 61 % 0.0 in /  0 mm
09:23 9.3 °F /  -12.6 °C 2.1 °F /  -16.6 °C 1030.7 in /  34899.5 hPa North 18.5 mph /  29.8 km/h 18.5 mph /  29.8 km/h 61 % 0.0 in /  0 mm
09:28 9.4 °F /  -12.6 °C 2.1 °F /  -16.6 °C 1031.0 in /  34909.7 hPa North 18.5 mph /  29.8 km/h 18.5 mph /  29.8 km/h 60 % 0.0 in /  0 mm
09:33 9.6 °F /  -12.4 °C 2.2 °F /  -16.6 °C 1031.0 in /  34909.7 hPa North 14.8 mph /  23.8 km/h 14.8 mph /  23.8 km/h 60 % 0.0 in /  0 mm
09:38 9.6 °F /  -12.4 °C 2.4 °F /  -16.4 °C 1031.0 in /  34909.7 hPa NNE 11.1 mph /  17.9 km/h 11.1 mph /  17.9 km/h 61 % 0.0 in /  0 mm
09:43 10.1 °F /  -12.2 °C 3.6 °F /  -15.8 °C 1031.0 in /  34909.7 hPa NNE 16.7 mph /  26.9 km/h 16.7 mph /  26.9 km/h 64 % 0.0 in /  0 mm
09:48 10.4 °F /  -12 °C 3.9 °F /  -15.6 °C 1031.0 in /  34909.7 hPa North 13.0 mph /  20.9 km/h 13.0 mph /  20.9 km/h 64 % 0.0 in /  0 mm
09:53 11.3 °F /  -11.5 °C 5.8 °F /  -14.6 °C 1031.0 in /  34909.7 hPa NNE 16.7 mph /  26.9 km/h 16.7 mph /  26.9 km/h 69 % 0.0 in /  0 mm
09:54 11.3 °F /  -11.5 °C 5.4 °F /  -14.8 °C 1031.0 in /  34909.7 hPa NNE 16.7 mph /  26.9 km/h 16.7 mph /  26.9 km/h 67 % 0.0 in /  0 mm
09:59 11.7 °F /  -11.3 °C 5.5 °F /  -14.7 °C 1031.0 in /  34909.7 hPa NE 13.0 mph /  20.9 km/h 13.0 mph /  20.9 km/h 66 % 0.0 in /  0 mm
10:04 12.6 °F /  -10.8 °C 7.2 °F /  -13.8 °C 1031.4 in /  34923.2 hPa NE 20.9 mph /  33.6 km/h 20.9 mph /  33.6 km/h 70 % 0.0 in /  0 mm
10:09 13.1 °F /  -10.5 °C 7.6 °F /  -13.6 °C 1031.4 in /  34923.2 hPa ENE 22.2 mph /  35.7 km/h 22.2 mph /  35.7 km/h 69 % 0.0 in /  0 mm
10:14 13.2 °F /  -10.4 °C 7.2 °F /  -13.8 °C 1031.4 in /  34923.2 hPa ENE 25.9 mph /  41.7 km/h 25.9 mph /  41.7 km/h 67 % 0.0 in /  0 mm
10:19 13.3 °F /  -10.4 °C 7.5 °F /  -13.6 °C 1031.4 in /  34923.2 hPa ENE 24.1 mph /  38.8 km/h 24.1 mph /  38.8 km/h 68 % 0.0 in /  0 mm
10:24 13.3 °F /  -10.4 °C 7.3 °F /  -13.7 °C 1031.4 in /  34923.2 hPa NE 25.9 mph /  41.7 km/h 25.9 mph /  41.7 km/h 67 % 0.0 in /  0 mm
10:29 13.3 °F /  -10.4 °C 7.6 °F /  -13.6 °C 1031.7 in /  34933.4 hPa ENE 24.1 mph /  38.8 km/h 24.1 mph /  38.8 km/h 68 % 0.0 in /  0 mm
10:34 13.4 °F /  -10.3 °C 7.7 °F /  -13.5 °C 1031.7 in /  34933.4 hPa ENE 25.9 mph /  41.7 km/h 25.9 mph /  41.7 km/h 68 % 0.0 in /  0 mm
10:39 13.4 °F /  -10.3 °C 7.4 °F /  -13.7 °C 1031.7 in /  34933.4 hPa ENE 18.5 mph /  29.8 km/h 18.5 mph /  29.8 km/h 67 % 0.0 in /  0 mm
10:44 13.4 °F /  -10.3 °C 7.7 °F /  -13.5 °C 1031.7 in /  34933.4 hPa ENE 24.1 mph /  38.8 km/h 24.1 mph /  38.8 km/h 68 % 0.0 in /  0 mm
10:49 13.5 °F /  -10.3 °C 7.7 °F /  -13.5 °C 1031.7 in /  34933.4 hPa ENE 27.4 mph /  44.1 km/h 27.4 mph /  44.1 km/h 68 % 0.0 in /  0 mm
10:54 13.5 °F /  -10.3 °C 7.7 °F /  -13.5 °C 1031.7 in /  34933.4 hPa East 24.1 mph /  38.8 km/h 24.1 mph /  38.8 km/h 68 % 0.0 in /  0 mm
10:59 13.5 °F /  -10.3 °C 7.7 °F /  -13.5 °C 1032.1 in /  34946.9 hPa ENE 24.1 mph /  38.8 km/h 24.1 mph /  38.8 km/h 68 % 0.0 in /  0 mm
11:04 13.6 °F /  -10.2 °C 7.8 °F /  -13.4 °C 1032.1 in /  34946.9 hPa East 24.1 mph /  38.8 km/h 24.1 mph /  38.8 km/h 68 % 0.0 in /  0 mm
11:09 13.7 °F /  -10.2 °C 7.9 °F /  -13.4 °C 1032.1 in /  34946.9 hPa East 22.5 mph /  36.2 km/h 22.5 mph /  36.2 km/h 68 % 0.0 in /  0 mm
11:14 13.7 °F /  -10.2 °C 7.4 °F /  -13.7 °C 1032.1 in /  34946.9 hPa ENE 24.1 mph /  38.8 km/h 24.1 mph /  38.8 km/h 66 % 0.0 in /  0 mm
11:19 13.7 °F /  -10.2 °C 7.7 °F /  -13.5 °C 1032.1 in /  34946.9 hPa East 20.9 mph /  33.6 km/h 20.9 mph /  33.6 km/h 67 % 0.0 in /  0 mm
11:24 13.7 °F /  -10.2 °C 7.5 °F /  -13.6 °C 1032.1 in /  34946.9 hPa ENE 27.8 mph /  44.7 km/h 27.8 mph /  44.7 km/h 66 % 0.0 in /  0 mm
11:29 13.7 °F /  -10.2 °C 7.5 °F /  -13.6 °C 1032.1 in /  34946.9 hPa East 27.4 mph /  44.1 km/h 27.4 mph /  44.1 km/h 66 % 0.0 in /  0 mm
11:34 13.8 °F /  -10.1 °C 8.0 °F /  -13.3 °C 1032.1 in /  34946.9 hPa ENE 25.9 mph /  41.7 km/h 25.9 mph /  41.7 km/h 68 % 0.0 in /  0 mm
11:39 13.8 °F /  -10.1 °C 7.8 °F /  -13.4 °C 1032.1 in /  34946.9 hPa ENE 27.4 mph /  44.1 km/h 27.4 mph /  44.1 km/h 67 % 0.0 in /  0 mm
11:44 13.8 °F /  -10.1 °C 8.0 °F /  -13.3 °C 1032.1 in /  34946.9 hPa East 22.2 mph /  35.7 km/h 22.2 mph /  35.7 km/h 68 % 0.0 in /  0 mm
11:49 13.8 °F /  -10.1 °C 8.2 °F /  -13.2 °C 1032.1 in /  34946.9 hPa East 22.5 mph /  36.2 km/h 22.5 mph /  36.2 km/h 69 % 0.0 in /  0 mm
11:54 13.8 °F /  -10.1 °C 7.8 °F /  -13.4 °C 1032.1 in /  34946.9 hPa ESE 24.1 mph /  38.8 km/h 24.1 mph /  38.8 km/h 67 % 0.0 in /  0 mm
11:59 13.8 °F /  -10.1 °C 7.6 °F /  -13.6 °C 1032.1 in /  34946.9 hPa ESE 25.9 mph /  41.7 km/h 25.9 mph /  41.7 km/h 66 % 0.0 in /  0 mm
12:04 13.9 °F /  -10.1 °C 7.8 °F /  -13.4 °C 1032.1 in /  34946.9 hPa East 27.8 mph /  44.7 km/h 27.8 mph /  44.7 km/h 67 % 0.0 in /  0 mm
12:09 13.9 °F /  -10.1 °C 7.8 °F /  -13.4 °C 1032.1 in /  34946.9 hPa ESE 20.4 mph /  32.8 km/h 20.4 mph /  32.8 km/h 67 % 0.0 in /  0 mm
12:14 13.9 °F /  -10.1 °C 8.1 °F /  -13.3 °C 1032.1 in /  34946.9 hPa East 22.5 mph /  36.2 km/h 22.5 mph /  36.2 km/h 68 % 0.0 in /  0 mm
12:19 13.9 °F /  -10.1 °C 8.1 °F /  -13.3 °C 1032.1 in /  34946.9 hPa ESE 27.8 mph /  44.7 km/h 27.8 mph /  44.7 km/h 68 % 0.0 in /  0 mm
12:24 13.9 °F /  -10.1 °C 8.1 °F /  -13.3 °C 1032.1 in /  34946.9 hPa ESE 25.9 mph /  41.7 km/h 25.9 mph /  41.7 km/h 68 % 0.0 in /  0 mm
12:29 13.9 °F /  -10.1 °C 7.9 °F /  -13.4 °C 1032.1 in /  34946.9 hPa ESE 29.6 mph /  47.6 km/h 29.6 mph /  47.6 km/h 67 % 0.0 in /  0 mm
12:34 13.9 °F /  -10.1 °C 7.8 °F /  -13.4 °C 1032.1 in /  34946.9 hPa ESE 25.9 mph /  41.7 km/h 25.9 mph /  41.7 km/h 67 % 0.0 in /  0 mm
12:35 13.9 °F /  -10.1 °C 7.8 °F /  -13.4 °C 1032.1 in /  34946.9 hPa ESE 24.1 mph /  38.8 km/h 27.4 mph /  44.1 km/h 67 % 0.0 in /  0 mm
12:40 13.9 °F /  -10.1 °C 7.6 °F /  -13.6 °C 1032.1 in /  34946.9 hPa East 29.6 mph /  47.6 km/h 29.6 mph /  47.6 km/h 66 % 0.0 in /  0 mm
12:45 13.9 °F /  -10.1 °C 7.8 °F /  -13.4 °C 1032.1 in /  34946.9 hPa ESE 22.5 mph /  36.2 km/h 27.4 mph /  44.1 km/h 67 % 0.0 in /  0 mm
12:50 13.8 °F /  -10.1 °C 7.6 °F /  -13.6 °C 1032.1 in /  34946.9 hPa ESE 24.1 mph /  38.8 km/h 27.4 mph /  44.1 km/h 66 % 0.0 in /  0 mm
12:55 13.9 °F /  -10.1 °C 8.3 °F /  -13.2 °C 1031.7 in /  34933.4 hPa ESE 27.8 mph /  44.7 km/h 27.8 mph /  44.7 km/h 69 % 0.0 in /  0 mm
13:00 13.9 °F /  -10.1 °C 7.4 °F /  -13.7 °C 1031.7 in /  34933.4 hPa ESE 25.7 mph /  41.4 km/h 32.2 mph /  51.8 km/h 65 % 0.0 in /  0 mm
13:05 13.9 °F /  -10.1 °C 7.9 °F /  -13.4 °C 1031.7 in /  34933.4 hPa ESE 24.1 mph /  38.8 km/h 27.4 mph /  44.1 km/h 67 % 0.0 in /  0 mm
13:10 14.0 °F /  -10 °C 8.2 °F /  -13.2 °C 1031.7 in /  34933.4 hPa East 27.8 mph /  44.7 km/h 27.8 mph /  44.7 km/h 68 % 0.0 in /  0 mm
13:15 13.9 °F /  -10.1 °C 7.9 °F /  -13.4 °C 1031.7 in /  34933.4 hPa ESE 24.1 mph /  38.8 km/h 33.8 mph /  54.4 km/h 67 % 0.0 in /  0 mm
13:20 13.9 °F /  -10.1 °C 7.9 °F /  -13.4 °C 1031.7 in /  34933.4 hPa East 24.1 mph /  38.8 km/h 24.1 mph /  38.8 km/h 67 % 0.0 in /  0 mm
13:25 13.9 °F /  -10.1 °C 8.1 °F /  -13.3 °C 1031.7 in /  34933.4 hPa ESE 24.1 mph /  38.8 km/h 27.4 mph /  44.1 km/h 68 % 0.0 in /  0 mm
13:30 13.9 °F /  -10.1 °C 8.3 °F /  -13.2 °C 1031.4 in /  34923.2 hPa ESE 25.9 mph /  41.7 km/h 25.9 mph /  41.7 km/h 69 % 0.0 in /  0 mm
13:35 14.0 °F /  -10 °C 8.4 °F /  -13.1 °C 1031.4 in /  34923.2 hPa ESE 29.6 mph /  47.6 km/h 29.6 mph /  47.6 km/h 69 % 0.0 in /  0 mm
13:40 13.9 °F /  -10.1 °C 7.8 °F /  -13.4 °C 1031.4 in /  34923.2 hPa ESE 24.1 mph /  38.8 km/h 29.0 mph /  46.7 km/h 67 % 0.0 in /  0 mm
13:45 14.0 °F /  -10 °C 8.6 °F /  -13 °C 1031.4 in /  34923.2 hPa East 29.6 mph /  47.6 km/h 29.6 mph /  47.6 km/h 70 % 0.0 in /  0 mm
13:50 13.9 °F /  -10.1 °C 7.9 °F /  -13.4 °C 1031.4 in /  34923.2 hPa East 25.7 mph /  41.4 km/h 25.7 mph /  41.4 km/h 67 % 0.0 in /  0 mm
13:55 14.0 °F /  -10 °C 8.2 °F /  -13.2 °C 1031.4 in /  34923.2 hPa ESE 25.7 mph /  41.4 km/h 32.2 mph /  51.8 km/h 68 % 0.0 in /  0 mm
14:00 13.9 °F /  -10.1 °C 8.1 °F /  -13.3 °C 1031.4 in /  34923.2 hPa ESE 31.5 mph /  50.7 km/h 31.5 mph /  50.7 km/h 68 % 0.0 in /  0 mm
14:10 13.9 °F /  -10.1 °C 7.9 °F /  -13.4 °C 1031.4 in /  34923.2 hPa ESE 29.0 mph /  46.7 km/h 35.4 mph /  57 km/h 67 % 0.0 in /  0 mm
14:15 13.9 °F /  -10.1 °C 7.9 °F /  -13.4 °C 1031.4 in /  34923.2 hPa East 24.1 mph /  38.8 km/h 32.2 mph /  51.8 km/h 67 % 0.0 in /  0 mm
14:20 13.9 °F /  -10.1 °C 8.1 °F /  -13.3 °C 1031.4 in /  34923.2 hPa ESE 31.5 mph /  50.7 km/h 31.5 mph /  50.7 km/h 68 % 0.0 in /  0 mm
14:25 13.9 °F /  -10.1 °C 8.6 °F /  -13 °C 1031.0 in /  34909.7 hPa East 25.7 mph /  41.4 km/h 32.2 mph /  51.8 km/h 70 % 0.0 in /  0 mm
14:30 13.9 °F /  -10.1 °C 8.3 °F /  -13.2 °C 1031.0 in /  34909.7 hPa East 38.9 mph /  62.6 km/h 38.9 mph /  62.6 km/h 69 % 0.0 in /  0 mm
14:35 14.0 °F /  -10 °C 8.6 °F /  -13 °C 1031.0 in /  34909.7 hPa East 37.0 mph /  59.5 km/h 37.0 mph /  59.5 km/h 70 % 0.0 in /  0 mm
14:40 13.9 °F /  -10.1 °C 8.6 °F /  -13 °C 1031.0 in /  34909.7 hPa East 31.5 mph /  50.7 km/h 31.5 mph /  50.7 km/h 70 % 0.0 in /  0 mm
14:45 14.0 °F /  -10 °C 8.4 °F /  -13.1 °C 1031.0 in /  34909.7 hPa East 29.6 mph /  47.6 km/h 29.6 mph /  47.6 km/h 69 % 0.0 in /  0 mm
14:50 13.9 °F /  -10.1 °C 7.9 °F /  -13.4 °C 1031.0 in /  34909.7 hPa East 20.9 mph /  33.6 km/h 25.7 mph /  41.4 km/h 67 % 0.0 in /  0 mm
14:55 14.1 °F /  -9.9 °C 8.3 °F /  -13.2 °C 1031.0 in /  34909.7 hPa East 22.5 mph /  36.2 km/h 29.0 mph /  46.7 km/h 68 % 0.0 in /  0 mm
15:00 14.1 °F /  -9.9 °C 8.5 °F /  -13.1 °C 1031.0 in /  34909.7 hPa East 29.6 mph /  47.6 km/h 29.6 mph /  47.6 km/h 69 % 0.0 in /  0 mm
15:05 14.1 °F /  -9.9 °C 8.2 °F /  -13.2 °C 1031.0 in /  34909.7 hPa East 27.4 mph /  44.1 km/h 33.8 mph /  54.4 km/h 68 % 0.0 in /  0 mm
15:10 14.1 °F /  -9.9 °C 7.6 °F /  -13.6 °C 1031.0 in /  34909.7 hPa ENE 31.5 mph /  50.7 km/h 31.5 mph /  50.7 km/h 65 % 0.0 in /  0 mm
15:15 14.1 °F /  -9.9 °C 7.6 °F /  -13.6 °C 1031.0 in /  34909.7 hPa ENE 29.6 mph /  47.6 km/h 29.6 mph /  47.6 km/h 65 % 0.0 in /  0 mm
15:20 14.2 °F /  -9.9 °C 8.1 °F /  -13.3 °C 1031.0 in /  34909.7 hPa ENE 27.8 mph /  44.7 km/h 27.8 mph /  44.7 km/h 67 % 0.0 in /  0 mm
15:25 14.2 °F /  -9.9 °C 7.9 °F /  -13.4 °C 1031.0 in /  34909.7 hPa ENE 29.6 mph /  47.6 km/h 29.6 mph /  47.6 km/h 66 % 0.0 in /  0 mm
15:30 14.2 °F /  -9.9 °C 7.9 °F /  -13.4 °C 1031.0 in /  34909.7 hPa ENE 22.5 mph /  36.2 km/h 32.2 mph /  51.8 km/h 66 % 0.0 in /  0 mm
15:31 14.2 °F /  -9.9 °C 7.9 °F /  -13.4 °C 1031.0 in /  34909.7 hPa East 24.1 mph /  38.8 km/h 24.1 mph /  38.8 km/h 66 % 0.0 in /  0 mm
15:36 14.2 °F /  -9.9 °C 8.2 °F /  -13.2 °C 1031.0 in /  34909.7 hPa East 29.6 mph /  47.6 km/h 29.6 mph /  47.6 km/h 67 % 0.0 in /  0 mm
15:41 14.2 °F /  -9.9 °C 7.9 °F /  -13.4 °C 1031.0 in /  34909.7 hPa East 31.5 mph /  50.7 km/h 31.5 mph /  50.7 km/h 66 % 0.0 in /  0 mm
15:46 14.2 °F /  -9.9 °C 8.6 °F /  -13 °C 1031.0 in /  34909.7 hPa East 24.1 mph /  38.8 km/h 24.1 mph /  38.8 km/h 69 % 0.0 in /  0 mm
15:51 14.3 °F /  -9.8 °C 7.6 °F /  -13.6 °C 1031.0 in /  34909.7 hPa East 33.8 mph /  54.4 km/h 33.8 mph /  54.4 km/h 64 % 0.0 in /  0 mm
15:56 14.3 °F /  -9.8 °C 7.6 °F /  -13.6 °C 1031.0 in /  34909.7 hPa East 31.5 mph /  50.7 km/h 31.5 mph /  50.7 km/h 64 % 0.0 in /  0 mm
15:57 14.3 °F /  -9.8 °C 7.6 °F /  -13.6 °C 1031.0 in /  34909.7 hPa East 31.5 mph /  50.7 km/h 31.5 mph /  50.7 km/h 64 % 0.0 in /  0 mm
16:02 14.3 °F /  -9.8 °C 7.6 °F /  -13.6 °C 1031.0 in /  34909.7 hPa East 29.6 mph /  47.6 km/h 29.6 mph /  47.6 km/h 64 % 0.0 in /  0 mm
16:07 14.3 °F /  -9.8 °C 8.0 °F /  -13.3 °C 1031.0 in /  34909.7 hPa East 29.6 mph /  47.6 km/h 29.6 mph /  47.6 km/h 66 % 0.0 in /  0 mm
16:12 14.2 °F /  -9.9 °C 7.4 °F /  -13.7 °C 1031.0 in /  34909.7 hPa ESE 31.5 mph /  50.7 km/h 31.5 mph /  50.7 km/h 64 % 0.0 in /  0 mm
16:17 14.2 °F /  -9.9 °C 7.2 °F /  -13.8 °C 1031.0 in /  34909.7 hPa East 30.6 mph /  49.2 km/h 30.6 mph /  49.2 km/h 63 % 0.0 in /  0 mm
16:22 14.3 °F /  -9.8 °C 7.1 °F /  -13.8 °C 1031.0 in /  34909.7 hPa East 29.6 mph /  47.6 km/h 29.6 mph /  47.6 km/h 62 % 0.0 in /  0 mm
16:27 14.3 °F /  -9.8 °C 7.3 °F /  -13.7 °C 1031.0 in /  34909.7 hPa East 33.8 mph /  54.4 km/h 33.8 mph /  54.4 km/h 63 % 0.0 in /  0 mm
16:32 14.2 °F /  -9.9 °C 7.7 °F /  -13.5 °C 1031.0 in /  34909.7 hPa East 33.3 mph /  53.6 km/h 33.3 mph /  53.6 km/h 65 % 0.0 in /  0 mm
16:37 14.1 °F /  -9.9 °C 7.8 °F /  -13.4 °C 1031.0 in /  34909.7 hPa East 31.5 mph /  50.7 km/h 31.5 mph /  50.7 km/h 66 % 0.0 in /  0 mm
16:42 14.2 °F /  -9.9 °C 7.4 °F /  -13.7 °C 1031.0 in /  34909.7 hPa East 33.3 mph /  53.6 km/h 33.3 mph /  53.6 km/h 64 % 0.0 in /  0 mm
16:47 14.2 °F /  -9.9 °C 7.9 °F /  -13.4 °C 1031.0 in /  34909.7 hPa ENE 35.2 mph /  56.6 km/h 35.2 mph /  56.6 km/h 66 % 0.0 in /  0 mm
16:52 14.0 °F /  -10 °C 7.9 °F /  -13.4 °C 1031.0 in /  34909.7 hPa East 33.3 mph /  53.6 km/h 33.3 mph /  53.6 km/h 67 % 0.0 in /  0 mm
16:57 14.0 °F /  -10 °C 8.2 °F /  -13.2 °C 1031.0 in /  34909.7 hPa East 29.6 mph /  47.6 km/h 29.6 mph /  47.6 km/h 68 % 0.0 in /  0 mm
17:02 14.1 °F /  -9.9 °C 8.2 °F /  -13.2 °C 1031.0 in /  34909.7 hPa East 25.9 mph /  41.7 km/h 25.9 mph /  41.7 km/h 68 % 0.0 in /  0 mm
17:07 14.1 °F /  -9.9 °C 8.2 °F /  -13.2 °C 1031.0 in /  34909.7 hPa ENE 31.5 mph /  50.7 km/h 31.5 mph /  50.7 km/h 68 % 0.0 in /  0 mm
17:12 14.1 °F /  -9.9 °C 7.8 °F /  -13.4 °C 1031.0 in /  34909.7 hPa East 33.3 mph /  53.6 km/h 33.3 mph /  53.6 km/h 66 % 0.0 in /  0 mm
17:17 14.0 °F /  -10 °C 7.5 °F /  -13.6 °C 1031.4 in /  34923.2 hPa East 29.6 mph /  47.6 km/h 29.6 mph /  47.6 km/h 65 % 0.0 in /  0 mm
17:22 14.0 °F /  -10 °C 7.7 °F /  -13.5 °C 1031.4 in /  34923.2 hPa East 27.8 mph /  44.7 km/h 27.8 mph /  44.7 km/h 66 % 0.0 in /  0 mm
17:27 14.0 °F /  -10 °C 8.2 °F /  -13.2 °C 1031.4 in /  34923.2 hPa ENE 27.8 mph /  44.7 km/h 27.8 mph /  44.7 km/h 68 % 0.0 in /  0 mm
17:32 14.0 °F /  -10 °C 7.7 °F /  -13.5 °C 1031.4 in /  34923.2 hPa East 25.9 mph /  41.7 km/h 25.9 mph /  41.7 km/h 66 % 0.0 in /  0 mm
17:37 14.1 °F /  -9.9 °C 8.0 °F /  -13.3 °C 1031.4 in /  34923.2 hPa East 27.8 mph /  44.7 km/h 27.8 mph /  44.7 km/h 67 % 0.0 in /  0 mm
17:42 14.1 °F /  -9.9 °C 8.2 °F /  -13.2 °C 1031.4 in /  34923.2 hPa ENE 27.8 mph /  44.7 km/h 27.8 mph /  44.7 km/h 68 % 0.0 in /  0 mm
17:47 14.1 °F /  -9.9 °C 8.4 °F /  -13.1 °C 1031.4 in /  34923.2 hPa East 31.5 mph /  50.7 km/h 31.5 mph /  50.7 km/h 69 % 0.0 in /  0 mm
17:52 14.0 °F /  -10 °C 8.2 °F /  -13.2 °C 1031.4 in /  34923.2 hPa East 31.5 mph /  50.7 km/h 31.5 mph /  50.7 km/h 68 % 0.0 in /  0 mm
17:57 13.9 °F /  -10.1 °C 8.1 °F /  -13.3 °C 1031.7 in /  34933.4 hPa ENE 24.1 mph /  38.8 km/h 24.1 mph /  38.8 km/h 68 % 0.0 in /  0 mm
18:02 13.8 °F /  -10.1 °C 8.2 °F /  -13.2 °C 1031.7 in /  34933.4 hPa East 31.5 mph /  50.7 km/h 31.5 mph /  50.7 km/h 69 % 0.0 in /  0 mm
18:03 13.8 °F /  -10.1 °C 8.0 °F /  -13.3 °C 1031.7 in /  34933.4 hPa ENE 31.5 mph /  50.7 km/h 31.5 mph /  50.7 km/h 68 % 0.0 in /  0 mm
18:08 13.9 °F /  -10.1 °C 8.5 °F /  -13.1 °C 1031.7 in /  34933.4 hPa East 24.1 mph /  38.8 km/h 24.1 mph /  38.8 km/h 70 % 0.0 in /  0 mm
18:13 13.8 °F /  -10.1 °C 8.2 °F /  -13.2 °C 1031.7 in /  34933.4 hPa ENE 24.1 mph /  38.8 km/h 24.1 mph /  38.8 km/h 69 % 0.0 in /  0 mm
18:18 13.7 °F /  -10.2 °C 7.9 °F /  -13.4 °C 1031.7 in /  34933.4 hPa ENE 22.2 mph /  35.7 km/h 22.2 mph /  35.7 km/h 68 % 0.0 in /  0 mm
18:23 13.7 °F /  -10.2 °C 8.1 °F /  -13.3 °C 1031.7 in /  34933.4 hPa ENE 19.3 mph /  31.1 km/h 19.3 mph /  31.1 km/h 69 % 0.0 in /  0 mm
18:28 13.6 °F /  -10.2 °C 8.0 °F /  -13.3 °C 1031.7 in /  34933.4 hPa ENE 22.2 mph /  35.7 km/h 22.2 mph /  35.7 km/h 69 % 0.0 in /  0 mm
18:33 13.6 °F /  -10.2 °C 8.0 °F /  -13.3 °C 1031.7 in /  34933.4 hPa ENE 22.2 mph /  35.7 km/h 22.2 mph /  35.7 km/h 69 % 0.0 in /  0 mm
18:38 13.5 °F /  -10.3 °C 7.9 °F /  -13.4 °C 1032.1 in /  34946.9 hPa ENE 18.5 mph /  29.8 km/h 18.5 mph /  29.8 km/h 69 % 0.0 in /  0 mm
18:43 13.4 °F /  -10.3 °C 7.7 °F /  -13.5 °C 1032.1 in /  34946.9 hPa ENE 18.5 mph /  29.8 km/h 18.5 mph /  29.8 km/h 68 % 0.0 in /  0 mm
18:48 13.4 °F /  -10.3 °C 7.9 °F /  -13.4 °C 1032.1 in /  34946.9 hPa ENE 18.5 mph /  29.8 km/h 18.5 mph /  29.8 km/h 69 % 0.0 in /  0 mm
18:53 13.4 °F /  -10.3 °C 7.8 °F /  -13.4 °C 1032.1 in /  34946.9 hPa ENE 18.5 mph /  29.8 km/h 18.5 mph /  29.8 km/h 69 % 0.0 in /  0 mm
18:58 13.4 °F /  -10.3 °C 7.8 °F /  -13.4 °C 1032.1 in /  34946.9 hPa ENE 18.5 mph /  29.8 km/h 18.5 mph /  29.8 km/h 69 % 0.0 in /  0 mm
19:03 13.4 °F /  -10.3 °C 7.6 °F /  -13.6 °C 1032.1 in /  34946.9 hPa NE 18.5 mph /  29.8 km/h 18.5 mph /  29.8 km/h 68 % 0.0 in /  0 mm
19:08 13.3 °F /  -10.4 °C 7.6 °F /  -13.6 °C 1032.1 in /  34946.9 hPa NE 20.4 mph /  32.8 km/h 20.4 mph /  32.8 km/h 68 % 0.0 in /  0 mm
19:13 13.3 °F /  -10.4 °C 7.5 °F /  -13.6 °C 1032.1 in /  34946.9 hPa NE 16.7 mph /  26.9 km/h 16.7 mph /  26.9 km/h 68 % 0.0 in /  0 mm
19:23 13.3 °F /  -10.4 °C 7.5 °F /  -13.6 °C 1032.4 in /  34957.1 hPa NE 16.7 mph /  26.9 km/h 16.7 mph /  26.9 km/h 68 % 0.0 in /  0 mm
19:28 13.2 °F /  -10.4 °C 7.2 °F /  -13.8 °C 1032.4 in /  34957.1 hPa NE 17.7 mph /  28.5 km/h 17.7 mph /  28.5 km/h 67 % 0.0 in /  0 mm
19:33 13.3 °F /  -10.4 °C 7.5 °F /  -13.6 °C 1032.4 in /  34957.1 hPa NNE 16.7 mph /  26.9 km/h 16.7 mph /  26.9 km/h 68 % 0.0 in /  0 mm
19:38 13.2 °F /  -10.4 °C 7.4 °F /  -13.7 °C 1032.4 in /  34957.1 hPa NE 16.7 mph /  26.9 km/h 16.7 mph /  26.9 km/h 68 % 0.0 in /  0 mm
19:43 13.2 °F /  -10.4 °C 7.4 °F /  -13.7 °C 1032.4 in /  34957.1 hPa NNE 14.8 mph /  23.8 km/h 14.8 mph /  23.8 km/h 68 % 0.0 in /  0 mm
19:48 13.2 °F /  -10.4 °C 7.4 °F /  -13.7 °C 1032.4 in /  34957.1 hPa NE 14.8 mph /  23.8 km/h 14.8 mph /  23.8 km/h 68 % 0.0 in /  0 mm
19:53 13.2 °F /  -10.4 °C 7.7 °F /  -13.5 °C 1032.4 in /  34957.1 hPa NE 13.0 mph /  20.9 km/h 13.0 mph /  20.9 km/h 69 % 0.0 in /  0 mm
19:58 13.2 °F /  -10.4 °C 7.6 °F /  -13.6 °C 1032.7 in /  34967.2 hPa NE 13.0 mph /  20.9 km/h 13.0 mph /  20.9 km/h 69 % 0.0 in /  0 mm
20:03 13.2 °F /  -10.4 °C 7.6 °F /  -13.6 °C 1032.4 in /  34957.1 hPa NE 16.7 mph /  26.9 km/h 16.7 mph /  26.9 km/h 69 % 0.0 in /  0 mm
20:08 13.3 °F /  -10.4 °C 7.9 °F /  -13.4 °C 1032.7 in /  34967.2 hPa NE 16.7 mph /  26.9 km/h 16.7 mph /  26.9 km/h 70 % 0.0 in /  0 mm
20:13 13.3 °F /  -10.4 °C 7.8 °F /  -13.4 °C 1032.7 in /  34967.2 hPa ENE 18.5 mph /  29.8 km/h 18.5 mph /  29.8 km/h 69 % 0.0 in /  0 mm
20:18 13.4 °F /  -10.3 °C 7.9 °F /  -13.4 °C 1032.7 in /  34967.2 hPa ENE 16.7 mph /  26.9 km/h 16.7 mph /  26.9 km/h 69 % 0.0 in /  0 mm
20:23 13.4 °F /  -10.3 °C 8.0 °F /  -13.3 °C 1032.7 in /  34967.2 hPa NE 16.7 mph /  26.9 km/h 16.7 mph /  26.9 km/h 70 % 0.0 in /  0 mm
20:28 13.4 °F /  -10.3 °C 8.1 °F /  -13.3 °C 1032.7 in /  34967.2 hPa ENE 16.7 mph /  26.9 km/h 16.7 mph /  26.9 km/h 70 % 0.0 in /  0 mm
20:33 13.4 °F /  -10.3 °C 8.1 °F /  -13.3 °C 1032.7 in /  34967.2 hPa NE 14.8 mph /  23.8 km/h 14.8 mph /  23.8 km/h 70 % 0.0 in /  0 mm
20:38 13.3 °F /  -10.4 °C 8.2 °F /  -13.2 °C 1032.7 in /  34967.2 hPa NE 18.5 mph /  29.8 km/h 18.5 mph /  29.8 km/h 71 % 0.0 in /  0 mm
20:43 13.4 °F /  -10.3 °C 8.2 °F /  -13.2 °C 1032.7 in /  34967.2 hPa ENE 16.7 mph /  26.9 km/h 16.7 mph /  26.9 km/h 71 % 0.0 in /  0 mm
20:48 13.4 °F /  -10.3 °C 8.3 °F /  -13.2 °C 1032.7 in /  34967.2 hPa NE 14.8 mph /  23.8 km/h 14.8 mph /  23.8 km/h 71 % 0.0 in /  0 mm
20:53 13.4 °F /  -10.3 °C 8.2 °F /  -13.2 °C 1032.7 in /  34967.2 hPa NE 16.7 mph /  26.9 km/h 16.7 mph /  26.9 km/h 71 % 0.0 in /  0 mm
20:58 13.3 °F /  -10.4 °C 8.0 °F /  -13.3 °C 1032.7 in /  34967.2 hPa NE 13.0 mph /  20.9 km/h 13.0 mph /  20.9 km/h 70 % 0.0 in /  0 mm
21:03 13.3 °F /  -10.4 °C 8.2 °F /  -13.2 °C 1032.7 in /  34967.2 hPa NE 13.0 mph /  20.9 km/h 13.0 mph /  20.9 km/h 71 % 0.0 in /  0 mm
21:08 13.3 °F /  -10.4 °C 8.1 °F /  -13.3 °C 1033.1 in /  34980.8 hPa NE 11.1 mph /  17.9 km/h 11.1 mph /  17.9 km/h 71 % 0.0 in /  0 mm
21:13 13.1 °F /  -10.5 °C 7.9 °F /  -13.4 °C 1033.1 in /  34980.8 hPa NNE 9.3 mph /  15 km/h 9.3 mph /  15 km/h 71 % 0.0 in /  0 mm
21:18 12.7 °F /  -10.7 °C 7.6 °F /  -13.6 °C 1033.1 in /  34980.8 hPa NE 14.8 mph /  23.8 km/h 14.8 mph /  23.8 km/h 71 % 0.0 in /  0 mm
21:23 12.4 °F /  -10.9 °C 7.6 °F /  -13.6 °C 1033.1 in /  34980.8 hPa NE 5.6 mph /  9 km/h 5.6 mph /  9 km/h 72 % 0.0 in /  0 mm
21:33 12.9 °F /  -10.6 °C 8.2 °F /  -13.2 °C 1033.1 in /  34980.8 hPa NE 16.7 mph /  26.9 km/h 16.7 mph /  26.9 km/h 73 % 0.0 in /  0 mm
21:38 13.1 °F /  -10.5 °C 8.2 °F /  -13.2 °C 1033.1 in /  34980.8 hPa NE 13.0 mph /  20.9 km/h 13.0 mph /  20.9 km/h 72 % 0.0 in /  0 mm
21:43 13.1 °F /  -10.5 °C 8.2 °F /  -13.2 °C 1033.1 in /  34980.8 hPa NE 9.3 mph /  15 km/h 9.3 mph /  15 km/h 72 % 0.0 in /  0 mm
21:48 12.8 °F /  -10.7 °C 7.9 °F /  -13.4 °C 1033.1 in /  34980.8 hPa NNE 11.1 mph /  17.9 km/h 11.1 mph /  17.9 km/h 72 % 0.0 in /  0 mm
21:53 12.5 °F /  -10.8 °C 7.4 °F /  -13.7 °C 1033.1 in /  34980.8 hPa NNE 5.6 mph /  9 km/h 5.6 mph /  9 km/h 71 % 0.0 in /  0 mm
21:58 12.6 °F /  -10.8 °C 8.1 °F /  -13.3 °C 1033.1 in /  34980.8 hPa ENE 14.8 mph /  23.8 km/h 14.8 mph /  23.8 km/h 74 % 0.0 in /  0 mm
22:03 13.2 °F /  -10.4 °C 8.4 °F /  -13.1 °C 1033.1 in /  34980.8 hPa ENE 14.5 mph /  23.3 km/h 14.5 mph /  23.3 km/h 73 % 0.0 in /  0 mm
22:08 13.4 °F /  -10.3 °C 8.5 °F /  -13.1 °C 1033.1 in /  34980.8 hPa NE 18.5 mph /  29.8 km/h 18.5 mph /  29.8 km/h 72 % 0.0 in /  0 mm
22:13 13.6 °F /  -10.2 °C 8.4 °F /  -13.1 °C 1033.1 in /  34980.8 hPa NNE 18.5 mph /  29.8 km/h 18.5 mph /  29.8 km/h 71 % 0.0 in /  0 mm
22:18 13.7 °F /  -10.2 °C 8.7 °F /  -12.9 °C 1033.1 in /  34980.8 hPa ENE 16.7 mph /  26.9 km/h 16.7 mph /  26.9 km/h 72 % 0.0 in /  0 mm
22:23 13.7 °F /  -10.2 °C 8.5 °F /  -13.1 °C 1033.1 in /  34980.8 hPa NE 18.5 mph /  29.8 km/h 18.5 mph /  29.8 km/h 71 % 0.0 in /  0 mm
22:28 13.7 °F /  -10.2 °C 8.8 °F /  -12.9 °C 1033.4 in /  34990.9 hPa ENE 16.7 mph /  26.9 km/h 16.7 mph /  26.9 km/h 72 % 0.0 in /  0 mm
22:33 13.7 °F /  -10.2 °C 8.8 °F /  -12.9 °C 1033.4 in /  34990.9 hPa ENE 14.8 mph /  23.8 km/h 14.8 mph /  23.8 km/h 72 % 0.0 in /  0 mm
22:38 13.7 °F /  -10.2 °C 8.8 °F /  -12.9 °C 1033.4 in /  34990.9 hPa ENE 14.8 mph /  23.8 km/h 14.8 mph /  23.8 km/h 72 % 0.0 in /  0 mm
22:43 13.6 °F /  -10.2 °C 8.7 °F /  -12.9 °C 1033.4 in /  34990.9 hPa NE 18.5 mph /  29.8 km/h 18.5 mph /  29.8 km/h 72 % 0.0 in /  0 mm
22:48 13.6 °F /  -10.2 °C 8.6 °F /  -13 °C 1033.4 in /  34990.9 hPa ENE 14.8 mph /  23.8 km/h 14.8 mph /  23.8 km/h 72 % 0.0 in /  0 mm
22:53 13.6 °F /  -10.2 °C 8.7 °F /  -12.9 °C 1033.4 in /  34990.9 hPa ENE 18.5 mph /  29.8 km/h 18.5 mph /  29.8 km/h 72 % 0.0 in /  0 mm
23:03 13.7 °F /  -10.2 °C 8.7 °F /  -12.9 °C 1033.4 in /  34990.9 hPa ENE 14.8 mph /  23.8 km/h 14.8 mph /  23.8 km/h 72 % 0.0 in /  0 mm
23:08 13.6 °F /  -10.2 °C 8.6 °F /  -13 °C 1033.4 in /  34990.9 hPa ENE 16.7 mph /  26.9 km/h 16.7 mph /  26.9 km/h 72 % 0.0 in /  0 mm
23:13 13.6 °F /  -10.2 °C 8.6 °F /  -13 °C 1033.4 in /  34990.9 hPa NE 13.0 mph /  20.9 km/h 13.0 mph /  20.9 km/h 72 % 0.0 in /  0 mm
23:18 13.4 °F /  -10.3 °C 8.7 °F /  -12.9 °C 1033.4 in /  34990.9 hPa NE 14.8 mph /  23.8 km/h 14.8 mph /  23.8 km/h 73 % 0.0 in /  0 mm
23:23 13.6 °F /  -10.2 °C 8.6 °F /  -13 °C 1033.4 in /  34990.9 hPa ENE 17.7 mph /  28.5 km/h 17.7 mph /  28.5 km/h 72 % 0.0 in /  0 mm
23:28 13.7 °F /  -10.2 °C 8.7 °F /  -12.9 °C 1033.4 in /  34990.9 hPa ENE 18.5 mph /  29.8 km/h 18.5 mph /  29.8 km/h 72 % 0.0 in /  0 mm
23:33 13.7 °F /  -10.2 °C 8.7 °F /  -12.9 °C 1033.4 in /  34990.9 hPa NE 18.5 mph /  29.8 km/h 18.5 mph /  29.8 km/h 72 % 0.0 in /  0 mm
23:38 13.7 °F /  -10.2 °C 8.5 °F /  -13.1 °C 1033.4 in /  34990.9 hPa ENE 18.5 mph /  29.8 km/h 18.5 mph /  29.8 km/h 71 % 0.0 in /  0 mm
23:43 13.7 °F /  -10.2 °C 8.5 °F /  -13.1 °C 1033.4 in /  34990.9 hPa NE 18.5 mph /  29.8 km/h 18.5 mph /  29.8 km/h 71 % 0.0 in /  0 mm
23:48 13.6 °F /  -10.2 °C 8.4 °F /  -13.1 °C 1033.4 in /  34990.9 hPa ENE 16.7 mph /  26.9 km/h 16.7 mph /  26.9 km/h 71 % 0.0 in /  0 mm
23:54 13.6 °F /  -10.2 °C 8.4 °F /  -13.1 °C 1033.4 in /  34990.9 hPa NE 16.7 mph /  26.9 km/h 16.7 mph /  26.9 km/h 71 % 0.0 in /  0 mm
23:59 13.5 °F /  -10.3 °C 8.3 °F /  -13.2 °C 1033.4 in /  34990.9 hPa NE 14.8 mph /  23.8 km/h 14.8 mph /  23.8 km/h 71 % 0.0 in /  0 mm
Puerto Banus, Marbella
Elogios de Weather Underground - 2.5 mb

Guión original por  Jim McMurry - jmcmurry@mwt.net Adaptado para la plantilla por  Wim van der Kuil - Leuven-Template.eu

Usted encontrará nuestra información del tiempo también en:

Weather Underground

Iberian Peninsula Weather Network